sensor_id;sensor_type;location;lat;lon;timestamp;P1;durP1;ratioP1;P2;durP2;ratioP2
10281;SDS011;5186;59.472;18.048;2023-03-23T00:01:00;7.67;;;2.07;;
10281;SDS011;5186;59.472;18.048;2023-03-23T00:03:26;7.43;;;1.60;;
10281;SDS011;5186;59.472;18.048;2023-03-23T00:05:53;6.03;;;1.37;;
10281;SDS011;5186;59.472;18.048;2023-03-23T00:08:24;6.57;;;1.27;;
10281;SDS011;5186;59.472;18.048;2023-03-23T00:10:51;8.83;;;1.53;;
10281;SDS011;5186;59.472;18.048;2023-03-23T00:13:21;8.97;;;2.17;;
10281;SDS011;5186;59.472;18.048;2023-03-23T00:15:50;9.03;;;1.90;;
10281;SDS011;5186;59.472;18.048;2023-03-23T00:18:19;10.83;;;2.23;;
10281;SDS011;5186;59.472;18.048;2023-03-23T00:20:50;8.67;;;1.93;;
10281;SDS011;5186;59.472;18.048;2023-03-23T00:23:20;9.67;;;1.80;;
10281;SDS011;5186;59.472;18.048;2023-03-23T00:25:49;9.37;;;1.83;;
10281;SDS011;5186;59.472;18.048;2023-03-23T00:28:17;8.37;;;1.93;;
10281;SDS011;5186;59.472;18.048;2023-03-23T00:30:53;13.13;;;2.37;;
10281;SDS011;5186;59.472;18.048;2023-03-23T00:33:31;10.17;;;2.03;;
10281;SDS011;5186;59.472;18.048;2023-03-23T00:36:03;8.60;;;2.07;;
10281;SDS011;5186;59.472;18.048;2023-03-23T00:38:29;10.33;;;2.27;;
10281;SDS011;5186;59.472;18.048;2023-03-23T00:40:56;11.60;;;2.27;;
10281;SDS011;5186;59.472;18.048;2023-03-23T00:43:22;9.60;;;2.50;;
10281;SDS011;5186;59.472;18.048;2023-03-23T00:45:50;10.13;;;2.37;;
10281;SDS011;5186;59.472;18.048;2023-03-23T00:48:19;11.70;;;2.90;;
10281;SDS011;5186;59.472;18.048;2023-03-23T00:50:46;15.83;;;2.60;;
10281;SDS011;5186;59.472;18.048;2023-03-23T00:53:11;12.97;;;2.33;;
10281;SDS011;5186;59.472;18.048;2023-03-23T00:55:37;10.17;;;2.33;;
10281;SDS011;5186;59.472;18.048;2023-03-23T00:58:05;10.93;;;2.80;;
10281;SDS011;5186;59.472;18.048;2023-03-23T01:00:30;12.03;;;2.87;;
10281;SDS011;5186;59.472;18.048;2023-03-23T01:02:56;9.60;;;2.33;;
10281;SDS011;5186;59.472;18.048;2023-03-23T01:05:21;15.10;;;2.50;;
10281;SDS011;5186;59.472;18.048;2023-03-23T01:07:47;10.80;;;2.43;;
10281;SDS011;5186;59.472;18.048;2023-03-23T01:10:13;13.37;;;2.30;;
10281;SDS011;5186;59.472;18.048;2023-03-23T01:12:44;11.10;;;1.97;;
10281;SDS011;5186;59.472;18.048;2023-03-23T01:15:14;8.23;;;2.13;;
10281;SDS011;5186;59.472;18.048;2023-03-23T01:17:42;9.13;;;2.80;;
10281;SDS011;5186;59.472;18.048;2023-03-23T01:20:09;13.57;;;2.53;;
10281;SDS011;5186;59.472;18.048;2023-03-23T01:22:36;13.63;;;2.93;;
10281;SDS011;5186;59.472;18.048;2023-03-23T01:25:02;10.13;;;2.37;;
10281;SDS011;5186;59.472;18.048;2023-03-23T01:27:28;9.53;;;2.50;;
10281;SDS011;5186;59.472;18.048;2023-03-23T01:29:53;14.13;;;2.37;;
10281;SDS011;5186;59.472;18.048;2023-03-23T01:32:19;13.83;;;2.30;;
10281;SDS011;5186;59.472;18.048;2023-03-23T01:34:45;7.97;;;2.27;;
10281;SDS011;5186;59.472;18.048;2023-03-23T01:37:11;8.27;;;2.00;;
10281;SDS011;5186;59.472;18.048;2023-03-23T01:39:37;12.83;;;2.60;;
10281;SDS011;5186;59.472;18.048;2023-03-23T01:42:02;12.40;;;2.30;;
10281;SDS011;5186;59.472;18.048;2023-03-23T01:46:56;10.83;;;3.33;;
10281;SDS011;5186;59.472;18.048;2023-03-23T01:49:26;10.97;;;2.57;;
10281;SDS011;5186;59.472;18.048;2023-03-23T01:51:58;10.80;;;2.47;;
10281;SDS011;5186;59.472;18.048;2023-03-23T01:54:27;12.73;;;3.00;;
10281;SDS011;5186;59.472;18.048;2023-03-23T01:57:01;11.50;;;2.87;;
10281;SDS011;5186;59.472;18.048;2023-03-23T01:59:31;13.00;;;2.50;;
10281;SDS011;5186;59.472;18.048;2023-03-23T02:01:58;13.73;;;2.90;;
10281;SDS011;5186;59.472;18.048;2023-03-23T02:04:25;11.60;;;2.23;;
10281;SDS011;5186;59.472;18.048;2023-03-23T02:06:52;16.73;;;2.70;;
10281;SDS011;5186;59.472;18.048;2023-03-23T02:09:19;13.00;;;2.40;;
10281;SDS011;5186;59.472;18.048;2023-03-23T02:11:46;14.00;;;2.33;;
10281;SDS011;5186;59.472;18.048;2023-03-23T02:14:14;12.77;;;2.60;;
10281;SDS011;5186;59.472;18.048;2023-03-23T02:30:45;12.57;;;2.70;;
10281;SDS011;5186;59.472;18.048;2023-03-23T02:35:54;15.70;;;3.03;;
10281;SDS011;5186;59.472;18.048;2023-03-23T02:41:17;13.40;;;2.90;;
10281;SDS011;5186;59.472;18.048;2023-03-23T02:43:47;13.90;;;3.23;;
10281;SDS011;5186;59.472;18.048;2023-03-23T02:46:14;11.20;;;2.40;;
10281;SDS011;5186;59.472;18.048;2023-03-23T02:48:41;15.43;;;2.30;;
10281;SDS011;5186;59.472;18.048;2023-03-23T02:51:09;9.63;;;2.43;;
10281;SDS011;5186;59.472;18.048;2023-03-23T02:53:37;9.30;;;2.43;;
10281;SDS011;5186;59.472;18.048;2023-03-23T02:56:06;14.00;;;3.33;;
10281;SDS011;5186;59.472;18.048;2023-03-23T02:58:34;11.73;;;2.40;;
10281;SDS011;5186;59.472;18.048;2023-03-23T03:01:12;12.27;;;2.50;;
10281;SDS011;5186;59.472;18.048;2023-03-23T03:03:42;13.53;;;3.33;;
10281;SDS011;5186;59.472;18.048;2023-03-23T03:09:02;11.83;;;2.97;;
10281;SDS011;5186;59.472;18.048;2023-03-23T03:11:37;13.20;;;2.50;;
10281;SDS011;5186;59.472;18.048;2023-03-23T03:14:08;10.20;;;2.57;;
10281;SDS011;5186;59.472;18.048;2023-03-23T03:16:44;11.23;;;2.33;;
10281;SDS011;5186;59.472;18.048;2023-03-23T03:19:27;15.47;;;2.40;;
10281;SDS011;5186;59.472;18.048;2023-03-23T03:21:56;11.90;;;1.80;;
10281;SDS011;5186;59.472;18.048;2023-03-23T03:24:24;11.13;;;2.70;;
10281;SDS011;5186;59.472;18.048;2023-03-23T03:26:52;15.27;;;2.67;;
10281;SDS011;5186;59.472;18.048;2023-03-23T03:29:23;12.97;;;2.50;;
10281;SDS011;5186;59.472;18.048;2023-03-23T03:31:52;14.70;;;3.33;;
10281;SDS011;5186;59.472;18.048;2023-03-23T03:34:21;15.83;;;2.90;;
10281;SDS011;5186;59.472;18.048;2023-03-23T03:36:49;21.63;;;3.30;;
10281;SDS011;5186;59.472;18.048;2023-03-23T03:39:18;10.13;;;2.40;;
10281;SDS011;5186;59.472;18.048;2023-03-23T03:41:46;19.63;;;2.70;;
10281;SDS011;5186;59.472;18.048;2023-03-23T03:44:12;13.83;;;2.53;;
10281;SDS011;5186;59.472;18.048;2023-03-23T03:46:38;13.70;;;2.70;;
10281;SDS011;5186;59.472;18.048;2023-03-23T03:49:04;10.83;;;2.70;;
10281;SDS011;5186;59.472;18.048;2023-03-23T03:51:33;15.67;;;2.40;;
10281;SDS011;5186;59.472;18.048;2023-03-23T03:54:00;13.40;;;2.50;;
10281;SDS011;5186;59.472;18.048;2023-03-23T03:56:26;15.73;;;2.80;;
10281;SDS011;5186;59.472;18.048;2023-03-23T03:58:51;12.23;;;2.50;;
10281;SDS011;5186;59.472;18.048;2023-03-23T04:01:18;12.40;;;2.60;;
10281;SDS011;5186;59.472;18.048;2023-03-23T04:03:49;14.07;;;2.57;;
10281;SDS011;5186;59.472;18.048;2023-03-23T04:06:16;13.47;;;2.67;;
10281;SDS011;5186;59.472;18.048;2023-03-23T04:08:42;13.17;;;2.93;;
10281;SDS011;5186;59.472;18.048;2023-03-23T04:11:10;17.93;;;2.80;;
10281;SDS011;5186;59.472;18.048;2023-03-23T04:13:37;17.50;;;2.93;;
10281;SDS011;5186;59.472;18.048;2023-03-23T04:16:03;18.47;;;3.27;;
10281;SDS011;5186;59.472;18.048;2023-03-23T04:18:29;14.47;;;2.57;;
10281;SDS011;5186;59.472;18.048;2023-03-23T04:20:57;11.27;;;2.57;;
10281;SDS011;5186;59.472;18.048;2023-03-23T04:23:24;17.77;;;3.43;;
10281;SDS011;5186;59.472;18.048;2023-03-23T04:25:51;12.70;;;3.30;;
10281;SDS011;5186;59.472;18.048;2023-03-23T04:28:21;14.97;;;3.23;;
10281;SDS011;5186;59.472;18.048;2023-03-23T04:30:48;16.40;;;2.47;;
10281;SDS011;5186;59.472;18.048;2023-03-23T04:33:17;14.60;;;2.30;;
10281;SDS011;5186;59.472;18.048;2023-03-23T04:35:43;12.43;;;2.87;;
10281;SDS011;5186;59.472;18.048;2023-03-23T04:38:10;20.93;;;3.30;;
10281;SDS011;5186;59.472;18.048;2023-03-23T04:40:38;14.60;;;2.93;;
10281;SDS011;5186;59.472;18.048;2023-03-23T04:43:05;14.13;;;2.60;;
10281;SDS011;5186;59.472;18.048;2023-03-23T04:45:32;12.33;;;2.50;;
10281;SDS011;5186;59.472;18.048;2023-03-23T04:47:58;9.90;;;2.60;;
10281;SDS011;5186;59.472;18.048;2023-03-23T04:50:27;18.37;;;3.40;;
10281;SDS011;5186;59.472;18.048;2023-03-23T04:52:55;16.90;;;3.10;;
10281;SDS011;5186;59.472;18.048;2023-03-23T04:55:23;10.73;;;2.67;;
10281;SDS011;5186;59.472;18.048;2023-03-23T04:57:49;13.73;;;3.10;;
10281;SDS011;5186;59.472;18.048;2023-03-23T05:00:15;17.80;;;2.97;;
10281;SDS011;5186;59.472;18.048;2023-03-23T05:02:42;9.73;;;2.60;;
10281;SDS011;5186;59.472;18.048;2023-03-23T05:05:10;15.00;;;2.93;;
10281;SDS011;5186;59.472;18.048;2023-03-23T05:07:37;12.63;;;2.90;;
10281;SDS011;5186;59.472;18.048;2023-03-23T05:10:04;12.43;;;3.47;;
10281;SDS011;5186;59.472;18.048;2023-03-23T05:12:30;14.27;;;2.63;;
10281;SDS011;5186;59.472;18.048;2023-03-23T05:14:56;12.60;;;2.70;;
10281;SDS011;5186;59.472;18.048;2023-03-23T05:17:21;21.97;;;3.43;;
10281;SDS011;5186;59.472;18.048;2023-03-23T05:19:49;15.10;;;2.57;;
10281;SDS011;5186;59.472;18.048;2023-03-23T05:22:18;12.93;;;3.00;;
10281;SDS011;5186;59.472;18.048;2023-03-23T05:24:46;16.87;;;3.10;;
10281;SDS011;5186;59.472;18.048;2023-03-23T05:27:12;10.83;;;2.63;;
10281;SDS011;5186;59.472;18.048;2023-03-23T05:29:39;14.70;;;3.40;;
10281;SDS011;5186;59.472;18.048;2023-03-23T05:32:06;16.70;;;3.43;;
10281;SDS011;5186;59.472;18.048;2023-03-23T05:34:33;14.27;;;2.90;;
10281;SDS011;5186;59.472;18.048;2023-03-23T05:37:00;16.37;;;2.90;;
10281;SDS011;5186;59.472;18.048;2023-03-23T05:39:28;13.57;;;2.80;;
10281;SDS011;5186;59.472;18.048;2023-03-23T05:41:54;11.13;;;2.17;;
10281;SDS011;5186;59.472;18.048;2023-03-23T05:44:20;17.37;;;3.33;;
10281;SDS011;5186;59.472;18.048;2023-03-23T05:46:46;13.77;;;3.13;;
10281;SDS011;5186;59.472;18.048;2023-03-23T05:49:13;16.80;;;3.37;;
10281;SDS011;5186;59.472;18.048;2023-03-23T05:51:41;11.70;;;3.00;;
10281;SDS011;5186;59.472;18.048;2023-03-23T05:54:10;15.17;;;3.37;;
10281;SDS011;5186;59.472;18.048;2023-03-23T05:56:37;14.23;;;3.27;;
10281;SDS011;5186;59.472;18.048;2023-03-23T05:59:03;14.53;;;3.27;;
10281;SDS011;5186;59.472;18.048;2023-03-23T06:01:28;14.33;;;2.83;;
10281;SDS011;5186;59.472;18.048;2023-03-23T06:03:55;12.60;;;2.47;;
10281;SDS011;5186;59.472;18.048;2023-03-23T06:06:23;16.90;;;2.83;;
10281;SDS011;5186;59.472;18.048;2023-03-23T06:08:54;18.00;;;2.83;;
10281;SDS011;5186;59.472;18.048;2023-03-23T06:11:20;18.83;;;2.70;;
10281;SDS011;5186;59.472;18.048;2023-03-23T06:13:46;13.87;;;2.53;;
10281;SDS011;5186;59.472;18.048;2023-03-23T06:16:12;12.83;;;3.03;;
10281;SDS011;5186;59.472;18.048;2023-03-23T06:18:38;15.73;;;3.40;;
10281;SDS011;5186;59.472;18.048;2023-03-23T06:21:05;13.07;;;2.80;;
10281;SDS011;5186;59.472;18.048;2023-03-23T06:23:31;14.13;;;2.97;;
10281;SDS011;5186;59.472;18.048;2023-03-23T06:25:59;12.53;;;3.13;;
10281;SDS011;5186;59.472;18.048;2023-03-23T06:28:28;12.40;;;2.60;;
10281;SDS011;5186;59.472;18.048;2023-03-23T06:30:54;9.40;;;2.57;;
10281;SDS011;5186;59.472;18.048;2023-03-23T06:33:19;16.00;;;3.10;;
10281;SDS011;5186;59.472;18.048;2023-03-23T06:35:45;10.57;;;2.80;;
10281;SDS011;5186;59.472;18.048;2023-03-23T06:38:11;12.93;;;2.73;;
10281;SDS011;5186;59.472;18.048;2023-03-23T06:40:37;12.00;;;2.37;;
10281;SDS011;5186;59.472;18.048;2023-03-23T06:43:03;12.10;;;3.00;;
10281;SDS011;5186;59.472;18.048;2023-03-23T06:45:29;14.37;;;3.03;;
10281;SDS011;5186;59.472;18.048;2023-03-23T06:47:55;12.00;;;2.37;;
10281;SDS011;5186;59.472;18.048;2023-03-23T06:50:21;14.60;;;2.90;;
10281;SDS011;5186;59.472;18.048;2023-03-23T06:52:47;15.27;;;3.00;;
10281;SDS011;5186;59.472;18.048;2023-03-23T06:55:14;18.30;;;3.13;;
10281;SDS011;5186;59.472;18.048;2023-03-23T06:57:40;12.40;;;3.50;;
10281;SDS011;5186;59.472;18.048;2023-03-23T07:00:07;15.70;;;3.20;;
10281;SDS011;5186;59.472;18.048;2023-03-23T07:02:36;13.53;;;2.70;;
10281;SDS011;5186;59.472;18.048;2023-03-23T07:05:02;12.77;;;3.03;;
10281;SDS011;5186;59.472;18.048;2023-03-23T07:07:28;11.90;;;2.10;;
10281;SDS011;5186;59.472;18.048;2023-03-23T07:09:54;16.10;;;2.67;;
10281;SDS011;5186;59.472;18.048;2023-03-23T07:12:20;16.27;;;2.60;;
10281;SDS011;5186;59.472;18.048;2023-03-23T07:14:46;10.93;;;2.50;;
10281;SDS011;5186;59.472;18.048;2023-03-23T07:17:12;14.17;;;2.70;;
10281;SDS011;5186;59.472;18.048;2023-03-23T07:19:38;10.40;;;2.60;;
10281;SDS011;5186;59.472;18.048;2023-03-23T07:22:05;11.83;;;2.50;;
10281;SDS011;5186;59.472;18.048;2023-03-23T07:24:31;10.77;;;2.30;;
10281;SDS011;5186;59.472;18.048;2023-03-23T07:26:58;13.10;;;2.93;;
10281;SDS011;5186;59.472;18.048;2023-03-23T07:29:23;14.20;;;3.00;;
10281;SDS011;5186;59.472;18.048;2023-03-23T07:31:49;9.77;;;3.00;;
10281;SDS011;5186;59.472;18.048;2023-03-23T07:34:16;15.23;;;2.83;;
10281;SDS011;5186;59.472;18.048;2023-03-23T07:36:42;7.77;;;2.00;;
10281;SDS011;5186;59.472;18.048;2023-03-23T07:39:08;14.17;;;2.70;;
10281;SDS011;5186;59.472;18.048;2023-03-23T07:41:34;9.30;;;2.80;;
10281;SDS011;5186;59.472;18.048;2023-03-23T07:44:00;11.70;;;2.43;;
10281;SDS011;5186;59.472;18.048;2023-03-23T07:46:26;14.47;;;3.30;;
10281;SDS011;5186;59.472;18.048;2023-03-23T07:48:51;9.17;;;2.30;;
10281;SDS011;5186;59.472;18.048;2023-03-23T07:51:18;11.73;;;2.57;;
10281;SDS011;5186;59.472;18.048;2023-03-23T07:53:43;13.00;;;2.67;;
10281;SDS011;5186;59.472;18.048;2023-03-23T07:56:10;12.40;;;2.73;;
10281;SDS011;5186;59.472;18.048;2023-03-23T07:58:37;11.73;;;3.50;;
10281;SDS011;5186;59.472;18.048;2023-03-23T08:01:03;10.10;;;2.20;;
10281;SDS011;5186;59.472;18.048;2023-03-23T08:03:29;10.50;;;2.27;;
10281;SDS011;5186;59.472;18.048;2023-03-23T08:05:58;8.73;;;2.50;;
10281;SDS011;5186;59.472;18.048;2023-03-23T08:08:24;11.53;;;2.50;;
10281;SDS011;5186;59.472;18.048;2023-03-23T08:10:50;9.80;;;2.30;;
10281;SDS011;5186;59.472;18.048;2023-03-23T08:13:16;14.33;;;2.73;;
10281;SDS011;5186;59.472;18.048;2023-03-23T08:15:43;8.60;;;2.10;;
10281;SDS011;5186;59.472;18.048;2023-03-23T08:18:09;11.97;;;3.23;;
10281;SDS011;5186;59.472;18.048;2023-03-23T08:20:35;14.97;;;2.87;;
10281;SDS011;5186;59.472;18.048;2023-03-23T08:23:01;10.07;;;2.53;;
10281;SDS011;5186;59.472;18.048;2023-03-23T08:25:28;13.77;;;2.47;;
10281;SDS011;5186;59.472;18.048;2023-03-23T08:27:56;12.70;;;2.40;;
10281;SDS011;5186;59.472;18.048;2023-03-23T08:30:23;13.10;;;2.33;;
10281;SDS011;5186;59.472;18.048;2023-03-23T08:32:50;11.47;;;2.50;;
10281;SDS011;5186;59.472;18.048;2023-03-23T08:35:17;11.97;;;2.20;;
10281;SDS011;5186;59.472;18.048;2023-03-23T08:37:44;11.57;;;2.50;;
10281;SDS011;5186;59.472;18.048;2023-03-23T08:40:12;9.50;;;2.40;;
10281;SDS011;5186;59.472;18.048;2023-03-23T08:42:40;11.67;;;2.70;;
10281;SDS011;5186;59.472;18.048;2023-03-23T08:45:11;9.30;;;2.20;;
10281;SDS011;5186;59.472;18.048;2023-03-23T08:47:39;11.67;;;2.70;;
10281;SDS011;5186;59.472;18.048;2023-03-23T08:50:06;14.63;;;2.33;;
10281;SDS011;5186;59.472;18.048;2023-03-23T08:52:33;9.13;;;2.33;;
10281;SDS011;5186;59.472;18.048;2023-03-23T08:54:59;14.33;;;2.47;;
10281;SDS011;5186;59.472;18.048;2023-03-23T08:57:26;11.73;;;2.37;;
10281;SDS011;5186;59.472;18.048;2023-03-23T08:59:52;10.63;;;2.50;;
10281;SDS011;5186;59.472;18.048;2023-03-23T09:02:25;11.17;;;2.17;;
10281;SDS011;5186;59.472;18.048;2023-03-23T09:04:51;9.90;;;2.10;;
10281;SDS011;5186;59.472;18.048;2023-03-23T09:07:18;9.93;;;2.30;;
10281;SDS011;5186;59.472;18.048;2023-03-23T09:09:44;7.77;;;2.27;;
10281;SDS011;5186;59.472;18.048;2023-03-23T09:12:10;11.17;;;2.70;;
10281;SDS011;5186;59.472;18.048;2023-03-23T09:14:36;13.00;;;3.50;;
10281;SDS011;5186;59.472;18.048;2023-03-23T09:17:02;7.97;;;2.13;;
10281;SDS011;5186;59.472;18.048;2023-03-23T09:19:29;8.03;;;2.30;;
10281;SDS011;5186;59.472;18.048;2023-03-23T09:21:57;10.63;;;2.40;;
10281;SDS011;5186;59.472;18.048;2023-03-23T09:24:23;9.03;;;2.27;;
10281;SDS011;5186;59.472;18.048;2023-03-23T09:26:49;11.53;;;2.73;;
10281;SDS011;5186;59.472;18.048;2023-03-23T09:29:14;8.30;;;2.13;;
10281;SDS011;5186;59.472;18.048;2023-03-23T09:31:40;7.00;;;2.13;;
10281;SDS011;5186;59.472;18.048;2023-03-23T09:34:07;8.73;;;2.50;;
10281;SDS011;5186;59.472;18.048;2023-03-23T09:36:35;11.20;;;2.77;;
10281;SDS011;5186;59.472;18.048;2023-03-23T09:39:01;11.93;;;2.30;;
10281;SDS011;5186;59.472;18.048;2023-03-23T09:47:04;13.67;;;2.20;;
10281;SDS011;5186;59.472;18.048;2023-03-23T09:52:16;10.20;;;2.43;;
10281;SDS011;5186;59.472;18.048;2023-03-23T09:54:46;7.43;;;2.77;;
10281;SDS011;5186;59.472;18.048;2023-03-23T09:57:29;11.80;;;2.80;;
10281;SDS011;5186;59.472;18.048;2023-03-23T10:00:01;11.23;;;2.33;;
10281;SDS011;5186;59.472;18.048;2023-03-23T10:02:38;8.07;;;2.00;;
10281;SDS011;5186;59.472;18.048;2023-03-23T10:05:33;10.00;;;2.83;;
10281;SDS011;5186;59.472;18.048;2023-03-23T10:16:15;8.03;;;2.63;;
10281;SDS011;5186;59.472;18.048;2023-03-23T10:21:29;14.17;;;2.50;;
10281;SDS011;5186;59.472;18.048;2023-03-23T10:24:03;10.13;;;2.37;;
10281;SDS011;5186;59.472;18.048;2023-03-23T10:32:00;7.33;;;2.50;;
10281;SDS011;5186;59.472;18.048;2023-03-23T10:37:31;13.23;;;2.30;;
10281;SDS011;5186;59.472;18.048;2023-03-23T10:39:58;11.43;;;1.87;;
10281;SDS011;5186;59.472;18.048;2023-03-23T10:42:29;12.03;;;2.30;;
10281;SDS011;5186;59.472;18.048;2023-03-23T10:45:11;7.90;;;2.17;;
10281;SDS011;5186;59.472;18.048;2023-03-23T10:47:58;9.70;;;2.27;;
10281;SDS011;5186;59.472;18.048;2023-03-23T10:50:38;11.90;;;2.70;;
10281;SDS011;5186;59.472;18.048;2023-03-23T10:53:11;9.87;;;2.10;;
10281;SDS011;5186;59.472;18.048;2023-03-23T10:55:45;9.30;;;2.27;;
10281;SDS011;5186;59.472;18.048;2023-03-23T10:58:12;10.33;;;1.77;;
10281;SDS011;5186;59.472;18.048;2023-03-23T11:00:47;5.10;;;1.70;;
10281;SDS011;5186;59.472;18.048;2023-03-23T11:05:48;10.80;;;2.40;;
10281;SDS011;5186;59.472;18.048;2023-03-23T11:08:51;12.17;;;2.33;;
10281;SDS011;5186;59.472;18.048;2023-03-23T11:11:27;9.13;;;2.00;;
10281;SDS011;5186;59.472;18.048;2023-03-23T11:13:59;8.27;;;2.20;;
10281;SDS011;5186;59.472;18.048;2023-03-23T11:16:42;6.40;;;1.80;;
10281;SDS011;5186;59.472;18.048;2023-03-23T11:19:13;15.90;;;2.90;;
10281;SDS011;5186;59.472;18.048;2023-03-23T11:21:40;10.37;;;2.60;;
10281;SDS011;5186;59.472;18.048;2023-03-23T11:24:11;9.43;;;2.77;;
10281;SDS011;5186;59.472;18.048;2023-03-23T11:26:37;9.63;;;2.07;;
10281;SDS011;5186;59.472;18.048;2023-03-23T11:29:10;7.17;;;2.03;;
10281;SDS011;5186;59.472;18.048;2023-03-23T11:31:40;11.40;;;2.20;;
10281;SDS011;5186;59.472;18.048;2023-03-23T11:34:13;11.73;;;2.40;;
10281;SDS011;5186;59.472;18.048;2023-03-23T11:36:42;7.40;;;2.17;;
10281;SDS011;5186;59.472;18.048;2023-03-23T11:41:46;8.50;;;2.43;;
10281;SDS011;5186;59.472;18.048;2023-03-23T11:44:12;6.97;;;2.53;;
10281;SDS011;5186;59.472;18.048;2023-03-23T11:52:01;11.00;;;2.30;;
10281;SDS011;5186;59.472;18.048;2023-03-23T11:54:40;7.80;;;2.43;;
10281;SDS011;5186;59.472;18.048;2023-03-23T11:57:13;9.37;;;2.63;;
10281;SDS011;5186;59.472;18.048;2023-03-23T11:59:41;9.53;;;2.07;;
10281;SDS011;5186;59.472;18.048;2023-03-23T12:05:06;8.87;;;2.27;;
10281;SDS011;5186;59.472;18.048;2023-03-23T12:13:29;8.30;;;1.73;;
10281;SDS011;5186;59.472;18.048;2023-03-23T12:34:04;7.77;;;2.23;;
10281;SDS011;5186;59.472;18.048;2023-03-23T12:50:29;8.80;;;2.50;;
10281;SDS011;5186;59.472;18.048;2023-03-23T12:53:22;7.10;;;1.97;;
10281;SDS011;5186;59.472;18.048;2023-03-23T12:56:10;8.63;;;2.10;;
10281;SDS011;5186;59.472;18.048;2023-03-23T12:59:11;10.40;;;2.00;;
10281;SDS011;5186;59.472;18.048;2023-03-23T13:02:00;9.17;;;2.20;;
10281;SDS011;5186;59.472;18.048;2023-03-23T13:04:35;5.77;;;2.00;;
10281;SDS011;5186;59.472;18.048;2023-03-23T13:07:05;10.97;;;2.17;;
10281;SDS011;5186;59.472;18.048;2023-03-23T13:12:12;4.47;;;1.70;;
10281;SDS011;5186;59.472;18.048;2023-03-23T13:17:42;6.23;;;2.23;;
10281;SDS011;5186;59.472;18.048;2023-03-23T13:28:30;10.00;;;2.00;;
10281;SDS011;5186;59.472;18.048;2023-03-23T13:31:17;7.00;;;2.17;;
10281;SDS011;5186;59.472;18.048;2023-03-23T13:33:50;11.80;;;2.10;;
10281;SDS011;5186;59.472;18.048;2023-03-23T13:36:29;7.60;;;2.27;;
10281;SDS011;5186;59.472;18.048;2023-03-23T13:39:02;10.77;;;2.20;;
10281;SDS011;5186;59.472;18.048;2023-03-23T13:41:32;7.80;;;1.87;;
10281;SDS011;5186;59.472;18.048;2023-03-23T13:44:15;9.53;;;2.07;;
10281;SDS011;5186;59.472;18.048;2023-03-23T13:46:46;5.57;;;2.07;;
10281;SDS011;5186;59.472;18.048;2023-03-23T13:49:23;7.13;;;1.93;;
10281;SDS011;5186;59.472;18.048;2023-03-23T14:01:51;7.90;;;2.20;;
10281;SDS011;5186;59.472;18.048;2023-03-23T14:04:18;6.97;;;1.87;;
10281;SDS011;5186;59.472;18.048;2023-03-23T14:06:49;7.17;;;2.00;;
10281;SDS011;5186;59.472;18.048;2023-03-23T14:09:22;11.13;;;2.13;;
10281;SDS011;5186;59.472;18.048;2023-03-23T14:14:25;7.97;;;1.70;;
10281;SDS011;5186;59.472;18.048;2023-03-23T14:17:04;6.20;;;1.87;;
10281;SDS011;5186;59.472;18.048;2023-03-23T14:19:42;10.43;;;2.27;;
10281;SDS011;5186;59.472;18.048;2023-03-23T14:22:19;7.70;;;1.77;;
10281;SDS011;5186;59.472;18.048;2023-03-23T14:24:48;8.63;;;2.17;;
10281;SDS011;5186;59.472;18.048;2023-03-23T14:27:16;6.03;;;2.50;;
10281;SDS011;5186;59.472;18.048;2023-03-23T14:29:44;7.43;;;2.00;;
10281;SDS011;5186;59.472;18.048;2023-03-23T14:32:13;9.00;;;2.10;;
10281;SDS011;5186;59.472;18.048;2023-03-23T14:34:41;7.47;;;2.00;;
10281;SDS011;5186;59.472;18.048;2023-03-23T14:37:14;7.67;;;2.23;;
10281;SDS011;5186;59.472;18.048;2023-03-23T14:39:43;7.90;;;1.93;;
10281;SDS011;5186;59.472;18.048;2023-03-23T14:42:12;12.97;;;2.17;;
10281;SDS011;5186;59.472;18.048;2023-03-23T14:44:41;14.13;;;2.33;;
10281;SDS011;5186;59.472;18.048;2023-03-23T14:47:12;7.47;;;1.73;;
10281;SDS011;5186;59.472;18.048;2023-03-23T14:49:42;5.47;;;1.80;;
10281;SDS011;5186;59.472;18.048;2023-03-23T14:52:13;10.50;;;2.27;;
10281;SDS011;5186;59.472;18.048;2023-03-23T14:54:42;9.57;;;2.00;;
10281;SDS011;5186;59.472;18.048;2023-03-23T14:57:11;6.53;;;1.77;;
10281;SDS011;5186;59.472;18.048;2023-03-23T14:59:41;6.60;;;2.20;;
10281;SDS011;5186;59.472;18.048;2023-03-23T15:02:09;9.33;;;2.10;;
10281;SDS011;5186;59.472;18.048;2023-03-23T15:04:39;9.50;;;2.10;;
10281;SDS011;5186;59.472;18.048;2023-03-23T15:07:06;8.13;;;2.07;;
10281;SDS011;5186;59.472;18.048;2023-03-23T15:09:33;8.73;;;2.13;;
10281;SDS011;5186;59.472;18.048;2023-03-23T15:12:05;8.03;;;1.97;;
10281;SDS011;5186;59.472;18.048;2023-03-23T15:14:43;8.07;;;2.17;;
10281;SDS011;5186;59.472;18.048;2023-03-23T15:17:18;12.40;;;2.10;;
10281;SDS011;5186;59.472;18.048;2023-03-23T15:19:45;12.10;;;2.43;;
10281;SDS011;5186;59.472;18.048;2023-03-23T15:22:18;9.23;;;2.10;;
10281;SDS011;5186;59.472;18.048;2023-03-23T15:24:50;10.87;;;2.57;;
10281;SDS011;5186;59.472;18.048;2023-03-23T15:27:26;10.37;;;2.20;;
10281;SDS011;5186;59.472;18.048;2023-03-23T15:29:58;9.03;;;1.87;;
10281;SDS011;5186;59.472;18.048;2023-03-23T15:32:31;15.67;;;2.20;;
10281;SDS011;5186;59.472;18.048;2023-03-23T15:35:09;12.80;;;1.83;;
10281;SDS011;5186;59.472;18.048;2023-03-23T15:37:41;9.40;;;1.83;;
10281;SDS011;5186;59.472;18.048;2023-03-23T15:40:19;14.13;;;2.17;;
10281;SDS011;5186;59.472;18.048;2023-03-23T15:42:47;10.60;;;2.33;;
10281;SDS011;5186;59.472;18.048;2023-03-23T15:52:39;7.80;;;1.80;;
10281;SDS011;5186;59.472;18.048;2023-03-23T15:57:52;7.43;;;1.80;;
10281;SDS011;5186;59.472;18.048;2023-03-23T16:00:19;8.40;;;1.97;;
10281;SDS011;5186;59.472;18.048;2023-03-23T16:02:47;9.13;;;1.60;;
10281;SDS011;5186;59.472;18.048;2023-03-23T16:05:19;7.87;;;2.53;;
10281;SDS011;5186;59.472;18.048;2023-03-23T16:07:45;6.07;;;1.60;;
10281;SDS011;5186;59.472;18.048;2023-03-23T16:10:14;12.30;;;1.83;;
10281;SDS011;5186;59.472;18.048;2023-03-23T16:12:42;6.00;;;1.70;;
10281;SDS011;5186;59.472;18.048;2023-03-23T16:15:08;6.87;;;1.90;;
10281;SDS011;5186;59.472;18.048;2023-03-23T16:17:34;7.43;;;1.93;;
10281;SDS011;5186;59.472;18.048;2023-03-23T16:19:59;5.27;;;1.67;;
10281;SDS011;5186;59.472;18.048;2023-03-23T16:22:25;6.67;;;1.50;;
10281;SDS011;5186;59.472;18.048;2023-03-23T16:24:51;7.23;;;1.60;;
10281;SDS011;5186;59.472;18.048;2023-03-23T16:27:16;7.60;;;1.43;;
10281;SDS011;5186;59.472;18.048;2023-03-23T16:29:42;8.27;;;1.90;;
10281;SDS011;5186;59.472;18.048;2023-03-23T16:32:08;5.87;;;1.83;;
10281;SDS011;5186;59.472;18.048;2023-03-23T16:34:33;8.80;;;1.73;;
10281;SDS011;5186;59.472;18.048;2023-03-23T16:36:59;15.73;;;2.07;;
10281;SDS011;5186;59.472;18.048;2023-03-23T16:39:25;8.50;;;2.00;;
10281;SDS011;5186;59.472;18.048;2023-03-23T16:41:51;6.30;;;2.03;;
10281;SDS011;5186;59.472;18.048;2023-03-23T16:44:17;7.43;;;1.77;;
10281;SDS011;5186;59.472;18.048;2023-03-23T16:46:43;6.63;;;2.03;;
10281;SDS011;5186;59.472;18.048;2023-03-23T16:49:08;5.83;;;1.83;;
10281;SDS011;5186;59.472;18.048;2023-03-23T16:51:34;4.83;;;1.70;;
10281;SDS011;5186;59.472;18.048;2023-03-23T16:54:00;7.50;;;1.87;;
10281;SDS011;5186;59.472;18.048;2023-03-23T16:56:25;9.27;;;2.07;;
10281;SDS011;5186;59.472;18.048;2023-03-23T16:58:51;6.63;;;2.03;;
10281;SDS011;5186;59.472;18.048;2023-03-23T17:01:16;9.30;;;1.90;;
10281;SDS011;5186;59.472;18.048;2023-03-23T17:03:43;11.93;;;2.17;;
10281;SDS011;5186;59.472;18.048;2023-03-23T17:06:09;10.27;;;2.10;;
10281;SDS011;5186;59.472;18.048;2023-03-23T17:08:35;6.63;;;1.70;;